IVALO current weather conditions

sailwx.info

Wind from 300 at 12 knots

Air temperature -7.0° C
Visibility: greater than 5.4 NM
Dewpoint -11.0° C

Last reported at 2020-Jan-22 14:50 UTC.
Time now 2020-Jan-22 15:48 UTC

Location: N 68°37' E 027°25'.
View on Google Maps.

See reports from other nearby stations

  
Tides and Currents Weather Stations Pressure Air Temp Water Temp Dewpoint Dewpoint Depression Visibility Wind Speed Wind Dir Waves Ship Positions
date/time (UTC)wind fromknots sea level pressurealtimeterstation pressurevisibilityair tempwater tempwave heightnotes
2020-Jan-22 14:50 300 12 5.4-7.0
2020-Jan-22 14:20 310 13 5.4-7.0
2020-Jan-22 13:50 310 13 5.4-7.0 Light snow.
2020-Jan-22 13:20 320 13 5.4-7.0 Light snow.
2020-Jan-22 12:50 310 9 4.9-7.0 Light snow.
2020-Jan-22 12:20 320 9 5.4-7.0 Light snow.
2020-Jan-22 11:50 320 12 1.0-7.0 Light snow.
2020-Jan-22 11:20 310 11 2.7-7.0 Light snow.
2020-Jan-22 10:50 310 11 5.4-7.0 Light snow showers.
2020-Jan-22 10:20 310 9 5.4-6.0 Light snow showers.
2020-Jan-22 09:50 310 9 5.4-6.0 Light snow showers.
2020-Jan-22 09:20 310 7 5.4-7.0 Light snow showers.
2020-Jan-22 08:50 310 6 5.4-7.0
2020-Jan-22 08:20 330 9 gusting 20 5.4-6.0
2020-Jan-22 07:50 310 11 5.4-6.0
2020-Jan-22 07:20 320 11 5.4-6.0
2020-Jan-22 06:50 320 7 5.4-5.0
2020-Jan-22 06:20 320 6 5.4-5.0
2020-Jan-22 05:50 320 7 5.4-5.0
2020-Jan-22 05:20 320 8 5.4-5.0
2020-Jan-22 04:50 320 6 5.4-5.0 Light snow.
2020-Jan-22 04:20 310 8 5.4-5.0
2020-Jan-22 03:50 310 6 5.4-5.0
2020-Jan-22 03:20 330 8 5.4-4.0
2020-Jan-22 02:50 330 8 5.4-4.0
2020-Jan-22 02:20 340 6 5.4-4.0
2020-Jan-22 01:50 340 8 5.4-3.0
2020-Jan-22 01:20 350 12 5.4-3.0
2020-Jan-22 00:50 350 8 5.4-3.0
2020-Jan-22 00:20 360 8 5.4-3.0 Light snow showers.
2020-Jan-21 23:50 350 13 5.4-2.0 Light snow showers.
2020-Jan-21 23:20 350 12 5.4-2.0 Light snow showers.
2020-Jan-21 22:50 350 12 5.4-2.0 Light snow.
2020-Jan-21 22:20 340 11 0.6-2.0 Heavy snow.
2020-Jan-21 21:50 320 15 gusting 26 1.1-2.0 Light snow showers.
2020-Jan-21 21:20 290 13 gusting 26 5.4-2.0 Light snow showers.
2020-Jan-21 20:50 280 12 5.4-3.0 Light snow showers.
2020-Jan-21 20:20 250 7 3.2-4.0 Light snow.
2020-Jan-21 19:50 230 8 5.4-6.0
2020-Jan-21 19:20 230 8 5.4-7.0
2020-Jan-21 18:50 200 2 5.4-7.0
2020-Jan-21 18:20 5.4-7.0
2020-Jan-21 17:50 220 11 5.4-7.0
2020-Jan-21 17:20 220 9 5.4-6.0
2020-Jan-21 16:50 180 6 5.4-7.0
2020-Jan-21 16:20 240 6 5.4-6.0
2020-Jan-21 15:50 240 13 5.4-6.0
2020-Jan-21 15:20 220 13 5.4-6.0
2020-Jan-21 14:50 5.4-6.0
2020-Jan-21 14:20 230 12 5.4-6.0
2020-Jan-21 13:50 220 9 5.4-6.0
2020-Jan-21 13:20 230 8 5.4-6.0
2020-Jan-21 12:50 230 6 5.4-4.0
2020-Jan-21 12:20 220 6 5.4-5.0
2020-Jan-21 11:50 200 6 5.4-4.0
2020-Jan-21 11:20 5.4-4.0
2020-Jan-21 10:50 220 7 5.4-4.0
2020-Jan-21 10:20 230 7 5.4-4.0
2020-Jan-21 09:50 210 5 5.4-2.0
2020-Jan-21 09:20 130 4 5.4-5.0
2020-Jan-21 08:50 210 12 5.4-3.0
2020-Jan-21 08:20 250 6 5.4-3.0
2020-Jan-21 07:50 250 5 5.4-3.0 Light snow showers.
2020-Jan-21 07:20 220 9 5.4-3.0 Light snow.
2020-Jan-21 06:50 220 4 4.9-3.0 Light snow.
2020-Jan-21 06:20 240 7 5.4-4.0 Light snow.
2020-Jan-21 05:50 230 12 5.4-4.0
2020-Jan-21 05:20 220 7 5.4-4.0
2020-Jan-21 04:50 230 8 5.4-3.0
2020-Jan-21 04:20 230 6 5.4-3.0
2020-Jan-21 03:50 240 4 5.4-3.0
2020-Jan-21 03:20 200 4 5.4-3.0
2020-Jan-21 02:50 270 5 5.4-1.0
2020-Jan-21 02:20 310 8 5.4-0.0
2020-Jan-21 01:50 290 6 5.4-0.0
2020-Jan-21 01:20 310 7 5.4 1.0
2020-Jan-21 00:50 310 11 5.4 1.0
2020-Jan-21 00:20 300 7 gusting 20 5.4 1.0
2020-Jan-20 23:50 280 6 5.4 1.0 Light snow.
2020-Jan-20 23:20 230 8 3.2-0.0 Light snow.
2020-Jan-20 22:50 200 7 3.2-1.0 Light snow.
2020-Jan-20 22:20 220 9 5.4-0.0 Light freezing rain. Snow.
2020-Jan-20 21:50 230 12 5.4-1.0 Light snow.
2020-Jan-20 21:20 220 6 5.4-1.0 Light snow.
2020-Jan-20 20:50 200 6 2.7-1.0 Light snow.
2020-Jan-20 20:20 220 6 4.9-1.0 Light snow.
2020-Jan-20 19:50 220 6 2.7-1.0 Light snow.
2020-Jan-20 19:20 220 9 3.2-1.0 Light snow.
2020-Jan-20 18:50 230 13 3.2-2.0 Light snow.
2020-Jan-20 18:20 240 6 5.4-2.0
2020-Jan-20 17:50 220 9 5.4-3.0
2020-Jan-20 17:20 240 11 5.4-3.0
2020-Jan-20 16:50 230 8 5.4-3.0
2020-Jan-20 16:20 230 6 5.4-3.0
2020-Jan-20 15:50 200 6 5.4-3.0
2020-Jan-20 15:20 230 12 5.4-3.0